Time;durP1;ratioP1;P1;durP2;ratioP2;P2;SDS_P1;SDS_P2;PMS_P1;PMS_P2;Temp;Humidity;BMP_temperature;BMP_pressure;BME280_temperature;BME280_humidity;BME280_pressure;Samples;Min_cycle;Max_cycle;Signal;HPM_P1;HPM_P2
2021/03/13 00:03:28;;;;;;;0.70;0.50;;;;;;;8.45;58.10;97117.06;8354346;28;20231;-64
2021/03/13 00:07:31;;;;;;;2.60;0.60;;;;;;;8.58;57.73;97125.88;8362507;28;20223;-63
2021/03/13 00:11:33;;;;;;;1.43;0.60;;;;;;;8.59;57.50;97119.81;8362210;28;20583;-63
2021/03/13 00:15:36;;;;;;;1.27;0.50;;;;;;;8.60;57.39;97107.75;8362026;28;20219;-64
2021/03/13 00:19:37;;;;;;;1.40;0.67;;;;;;;8.50;57.78;97122.84;8362266;28;20231;-64
2021/03/13 00:23:40;;;;;;;3.00;0.63;;;;;;;8.61;57.20;97119.75;8361990;28;20222;-63
2021/03/13 00:27:51;;;;;;;2.10;0.60;;;;;;;8.50;57.83;97124.59;8362230;28;20207;-64
2021/03/13 00:31:54;;;;;;;1.67;0.60;;;;;;;8.52;57.60;97122.78;8361859;28;20212;-64
2021/03/13 00:35:56;;;;;;;1.97;0.70;;;;;;;8.52;58.59;97122.78;8361564;28;20262;-62
2021/03/13 00:39:59;;;;;;;1.80;0.70;;;;;;;8.39;59.68;97136.25;8361378;28;20211;-64
2021/03/13 00:44:01;;;;;;;2.13;0.60;;;;;;;8.47;59.58;97128.16;8335324;28;20554;-64
2021/03/13 00:48:05;;;;;;;1.57;0.70;;;;;;;8.50;60.00;97129.78;8328264;28;20208;-65
2021/03/13 00:52:07;;;;;;;1.60;0.70;;;;;;;8.50;60.16;97124.59;8329190;28;20548;-65
2021/03/13 00:56:09;;;;;;;2.37;0.70;;;;;;;8.49;60.04;97126.38;8334295;28;20223;-64
2021/03/13 01:00:14;;;;;;;3.37;0.80;;;;;;;8.60;59.58;97129.25;8334023;28;20232;-65
2021/03/13 01:04:15;;;;;;;1.43;0.80;;;;;;;8.69;59.78;97135.69;8334533;28;20228;-63
2021/03/13 01:08:17;;;;;;;1.83;0.80;;;;;;;8.77;59.41;97133.53;8334485;28;20209;-63
2021/03/13 01:12:23;;;;;;;1.10;0.67;;;;;;;8.65;59.50;97135.94;8334318;28;20586;-63
2021/03/13 01:16:25;;;;;;;2.40;0.90;;;;;;;8.58;59.87;97127.63;8334107;28;20217;-63
2021/03/13 01:20:28;;;;;;;3.17;0.80;;;;;;;8.51;59.94;97116.78;8334133;28;20228;-63
2021/03/13 01:24:29;;;;;;;1.80;0.90;;;;;;;8.58;59.98;97119.91;8334305;28;20208;-63
2021/03/13 01:28:32;;;;;;;2.43;0.80;;;;;;;8.60;59.68;97111.19;8334393;28;20208;-64
2021/03/13 01:32:35;;;;;;;2.43;0.80;;;;;;;8.59;59.91;97099.19;8333768;28;20212;-64
2021/03/13 01:36:38;;;;;;;1.87;0.77;;;;;;;8.59;60.23;97112.09;8333248;28;20695;-64
2021/03/13 01:40:40;;;;;;;2.60;0.80;;;;;;;8.54;60.69;97098.56;8333094;28;20232;-64
2021/03/13 01:44:43;;;;;;;2.63;0.80;;;;;;;8.64;60.13;97091.19;8332857;28;20284;-64
2021/03/13 01:48:49;;;;;;;1.77;0.60;;;;;;;8.65;60.69;97086.88;8332979;28;20262;-63
2021/03/13 01:52:51;;;;;;;2.43;0.80;;;;;;;8.61;61.21;97086.19;8332883;28;20212;-63
2021/03/13 01:56:53;;;;;;;1.43;0.70;;;;;;;8.59;60.93;97088.84;8332410;28;20220;-63
2021/03/13 02:00:56;;;;;;;2.57;0.80;;;;;;;8.62;61.18;97077.53;8332535;28;20232;-64
2021/03/13 02:04:58;;;;;;;2.50;0.90;;;;;;;8.55;61.33;97069.28;8331772;28;20295;-63
2021/03/13 02:09:09;;;;;;;3.67;1.10;;;;;;;8.50;61.76;97062.69;8331935;28;20212;-63
2021/03/13 02:13:17;;;;;;;1.30;0.60;;;;;;;8.44;61.72;97050.09;8331492;28;20295;-63
2021/03/13 02:17:25;;;;;;;2.47;0.70;;;;;;;8.50;61.64;97048.03;8330505;28;20227;-63
2021/03/13 02:21:29;;;;;;;1.70;0.60;;;;;;;8.43;61.21;97043.25;8331228;28;20235;-63
2021/03/13 02:25:40;;;;;;;2.00;0.60;;;;;;;8.49;61.33;97037.78;8331684;28;20204;-63
2021/03/13 02:29:46;;;;;;;0.77;0.40;;;;;;;8.36;61.21;97035.78;8331920;28;20200;-63
2021/03/13 02:33:54;;;;;;;1.73;0.73;;;;;;;8.32;61.88;97038.59;8331021;28;20212;-63
2021/03/13 02:38:01;;;;;;;1.00;0.60;;;;;;;8.43;61.85;97041.50;8331602;28;20656;-63
2021/03/13 02:42:04;;;;;;;1.27;0.70;;;;;;;8.39;61.62;97037.38;8333973;28;20228;-63
2021/03/13 02:46:08;;;;;;;0.50;0.50;;;;;;;8.49;61.18;97036.06;8364222;28;20210;-63
2021/03/13 02:50:11;;;;;;;1.40;0.70;;;;;;;8.44;61.52;97026.88;8364794;28;20215;-63
2021/03/13 02:54:15;;;;;;;2.47;0.80;;;;;;;8.51;61.22;97010.13;8357126;28;20220;-63
2021/03/13 02:58:18;;;;;;;2.00;0.83;;;;;;;8.45;61.64;97005.31;8330724;28;20209;-63
2021/03/13 03:02:21;;;;;;;1.27;0.67;;;;;;;8.32;61.80;96992.16;8330776;28;20236;-63
2021/03/13 03:06:25;;;;;;;1.10;0.50;;;;;;;8.39;61.68;96998.69;8331301;28;20655;-63
2021/03/13 03:10:28;;;;;;;2.10;0.70;;;;;;;8.31;62.07;96986.16;8329605;28;20231;-63
2021/03/13 03:14:31;;;;;;;4.27;0.80;;;;;;;8.39;61.79;96990.94;8328649;28;20204;-63
2021/03/13 03:18:34;;;;;;;1.50;0.60;;;;;;;8.27;62.37;96981.25;8327783;28;20200;-64
2021/03/13 03:22:37;;;;;;;1.97;0.70;;;;;;;7.90;63.50;96980.50;8328418;28;20555;-65
2021/03/13 03:26:41;;;;;;;1.00;0.50;;;;;;;7.93;63.17;96965.72;8329694;28;20239;-64
2021/03/13 03:30:42;;;;;;;1.93;0.70;;;;;;;8.00;63.31;96956.78;8330203;28;20212;-64
2021/03/13 03:34:45;;;;;;;1.43;0.50;;;;;;;8.00;63.30;96956.78;8329724;28;20319;-64
2021/03/13 03:38:47;;;;;;;1.70;0.80;;;;;;;8.10;63.04;96951.97;8329540;28;20241;-63
2021/03/13 03:42:53;;;;;;;1.50;0.70;;;;;;;8.16;62.42;96943.94;8329436;28;20236;-63
2021/03/13 03:46:56;;;;;;;1.90;0.87;;;;;;;8.14;62.67;96950.91;8329682;28;20212;-64
2021/03/13 03:51:00;;;;;;;2.57;0.80;;;;;;;7.98;62.88;96937.97;8329086;28;20238;-64
2021/03/13 03:55:02;;;;;;;0.60;0.60;;;;;;;7.80;63.49;96938.88;8329301;28;20208;-63
2021/03/13 03:59:04;;;;;;;0.90;0.60;;;;;;;7.82;63.38;96935.34;8329300;28;20208;-63
2021/03/13 04:03:10;;;;;;;1.30;0.70;;;;;;;7.97;62.99;96933.72;8329510;28;20228;-64
2021/03/13 04:07:13;;;;;;;1.33;0.87;;;;;;;7.89;63.44;96933.28;8329141;28;20208;-64
2021/03/13 04:11:17;;;;;;;2.70;1.10;;;;;;;8.07;62.91;96925.50;8328884;28;20248;-63
2021/03/13 04:15:19;;;;;;;1.47;0.70;;;;;;;8.07;63.08;96916.03;8329470;28;20205;-64
2021/03/13 04:19:21;;;;;;;1.90;0.70;;;;;;;8.11;62.28;96912.41;8329049;28;20220;-64
2021/03/13 04:23:24;;;;;;;3.37;0.90;;;;;;;8.02;62.85;96899.97;8329016;28;20232;-64
2021/03/13 04:27:26;;;;;;;3.53;0.80;;;;;;;8.16;62.26;96901.84;8330246;28;20563;-64
2021/03/13 04:31:29;;;;;;;1.23;0.70;;;;;;;8.16;62.62;96894.09;8335169;28;20212;-64
2021/03/13 04:35:33;;;;;;;1.97;0.80;;;;;;;8.18;62.46;96884.53;8335520;28;20696;-64
2021/03/13 04:39:36;;;;;;;1.93;1.00;;;;;;;8.18;62.21;96884.53;8335223;28;20567;-63
2021/03/13 04:43:38;;;;;;;1.93;0.80;;;;;;;8.16;62.13;96876.88;8335411;28;20235;-64
2021/03/13 04:47:42;;;;;;;1.80;0.80;;;;;;;8.21;62.32;96866.34;8334849;28;20558;-64
2021/03/13 04:51:45;;;;;;;1.90;0.90;;;;;;;8.17;62.11;96863.09;8335360;28;20208;-64
2021/03/13 04:55:47;;;;;;;2.83;1.00;;;;;;;8.08;62.56;96857.56;8335397;28;20555;-63
2021/03/13 04:59:50;;;;;;;2.33;1.00;;;;;;;8.13;62.26;96856.41;8334738;28;20212;-63
2021/03/13 05:03:52;;;;;;;4.43;1.57;;;;;;;8.20;62.31;96857.75;8334345;28;20228;-63
2021/03/13 05:07:54;;;;;;;2.67;1.27;;;;;;;8.18;62.12;96861.31;8333086;28;20211;-63
2021/03/13 05:11:57;;;;;;;1.73;0.80;;;;;;;8.10;62.31;96853.16;8333306;28;20256;-63
2021/03/13 05:15:59;;;;;;;3.33;1.10;;;;;;;8.13;61.97;96843.53;8333992;28;20209;-63
2021/03/13 05:20:02;;;;;;;2.17;1.10;;;;;;;8.14;62.11;96846.94;8334123;28;20216;-63
2021/03/13 05:24:05;;;;;;;2.43;1.07;;;;;;;8.06;62.03;96842.19;8333851;28;20224;-66
2021/03/13 05:28:07;;;;;;;3.63;1.30;;;;;;;7.96;62.33;96828.94;8333623;28;20231;-63
2021/03/13 05:32:09;;;;;;;3.90;1.30;;;;;;;8.08;61.85;96842.94;8333214;28;20220;-63
2021/03/13 05:36:12;;;;;;;2.17;1.10;;;;;;;8.02;62.32;96828.59;8333865;28;20271;-63
2021/03/13 05:40:14;;;;;;;2.23;1.10;;;;;;;8.15;61.62;96831.38;8332284;28;20216;-63
2021/03/13 05:44:17;;;;;;;3.00;1.07;;;;;;;8.08;61.84;96821.47;8332610;28;20235;-63
2021/03/13 05:48:22;;;;;;;3.63;1.30;;;;;;;7.83;62.61;96821.00;8333264;28;20208;-63
2021/03/13 05:52:24;;;;;;;4.07;1.50;;;;;;;8.00;62.03;96825.28;8332911;28;20587;-63
2021/03/13 05:56:27;;;;;;;5.20;1.00;;;;;;;8.11;61.45;96822.16;8332714;28;20205;-63
2021/03/13 06:00:30;;;;;;;4.83;1.37;;;;;;;8.14;61.17;96814.22;8332703;28;20204;-63
2021/03/13 06:04:32;;;;;;;4.03;1.47;;;;;;;8.25;60.91;96815.44;8332728;28;20561;-63
2021/03/13 06:08:36;;;;;;;2.73;1.10;;;;;;;8.36;60.66;96811.34;8332422;28;20204;-63
2021/03/13 06:12:37;;;;;;;3.37;1.30;;;;;;;8.25;60.66;96808.50;8332292;28;20272;-63
2021/03/13 06:16:41;;;;;;;4.63;1.30;;;;;;;7.93;61.16;96805.88;8331969;28;20212;-63
2021/03/13 06:20:43;;;;;;;4.00;1.00;;;;;;;8.39;60.29;96812.94;8332088;28;20205;-63
2021/03/13 06:24:45;;;;;;;2.87;1.13;;;;;;;8.37;60.04;96804.44;8332393;28;20656;-63
2021/03/13 06:28:46;;;;;;;3.33;1.50;;;;;;;8.48;60.09;96799.56;8331884;28;20698;-63
2021/03/13 06:32:49;;;;;;;3.33;1.20;;;;;;;8.32;60.56;96798.69;8331974;28;20208;-63
2021/03/13 06:36:51;;;;;;;3.17;1.37;;;;;;;8.36;60.62;96777.81;8331515;28;20228;-63
2021/03/13 06:40:54;;;;;;;7.13;1.57;;;;;;;8.51;60.13;96770.16;8331005;28;20239;-63
2021/03/13 06:44:57;;;;;;;4.73;1.07;;;;;;;8.60;59.88;96770.53;8331318;28;20658;-63
2021/03/13 06:49:00;;;;;;;3.30;1.20;;;;;;;8.70;59.72;96775.16;8331171;28;20303;-63
2021/03/13 06:53:08;;;;;;;2.83;1.30;;;;;;;8.67;59.62;96765.84;8330532;28;20212;-63
2021/03/13 06:57:10;;;;;;;3.73;1.47;;;;;;;8.76;59.48;96760.16;8330989;28;20216;-63
2021/03/13 07:01:12;;;;;;;7.50;1.57;;;;;;;8.68;59.23;96762.34;8331096;28;20754;-63
2021/03/13 07:05:16;;;;;;;4.63;1.70;;;;;;;8.64;59.58;96755.66;8330638;28;20208;-63
2021/03/13 07:09:48;;;;;;;5.27;1.67;;;;;;;8.68;58.98;96759.78;8337669;28;20204;-63
2021/03/13 07:13:53;;;;;;;3.20;1.40;;;;;;;8.78;59.20;96754.91;8297523;28;20212;-63
2021/03/13 07:17:58;;;;;;;4.63;1.60;;;;;;;8.93;58.87;96754.03;8297073;28;20219;-64
2021/03/13 07:22:02;;;;;;;3.63;1.40;;;;;;;9.09;58.27;96750.59;8297071;28;20233;-63
2021/03/13 07:26:04;;;;;;;4.43;1.57;;;;;;;9.16;57.93;96738.97;8296681;28;20205;-63
2021/03/13 07:30:10;;;;;;;3.43;1.20;;;;;;;9.08;57.37;96739.44;8296993;28;20212;-63
2021/03/13 07:34:18;;;;;;;4.17;1.60;;;;;;;9.03;57.57;96743.19;8296830;28;20252;-64
2021/03/13 07:38:22;;;;;;;3.33;1.80;;;;;;;9.06;57.41;96733.50;8297155;28;20672;-63
2021/03/13 07:42:24;;;;;;;3.47;1.50;;;;;;;9.08;57.59;96726.50;8309911;28;20282;-64
2021/03/13 07:46:26;;;;;;;6.37;2.07;;;;;;;9.07;57.52;96716.28;8329254;28;20204;-63
2021/03/13 07:50:29;;;;;;;3.93;1.40;;;;;;;9.00;57.61;96716.63;8329162;28;20220;-64
2021/03/13 07:54:32;;;;;;;2.67;1.40;;;;;;;9.12;57.50;96711.66;8333342;28;20216;-62
2021/03/13 07:58:38;;;;;;;4.00;1.30;;;;;;;9.21;57.07;96700.78;8329584;28;20527;-63
2021/03/13 08:02:42;;;;;;;3.27;1.27;;;;;;;9.21;57.05;96695.59;8330841;28;20220;-62
2021/03/13 08:06:59;;;;;;;3.50;1.33;;;;;;;9.13;57.02;96693.47;8357566;28;20282;-62
2021/03/13 08:11:02;;;;;;;2.70;1.23;;;;;;;9.31;56.94;96690.72;8367611;28;20636;-63
2021/03/13 08:15:11;;;;;;;2.93;1.27;;;;;;;9.27;56.49;96686.66;8368745;28;20203;-63
2021/03/13 08:19:37;;;;;;;3.43;1.23;;;;;;;9.33;56.47;96686.31;8367251;28;20207;-63
2021/03/13 08:23:46;;;;;;;3.60;1.10;;;;;;;9.46;55.77;96678.66;8367649;28;20584;-63
2021/03/13 08:27:49;;;;;;;4.00;1.23;;;;;;;9.45;55.39;96682.16;8367366;28;20200;-63
2021/03/13 08:31:55;;;;;;;3.50;1.20;;;;;;;9.51;55.49;96668.88;8367472;28;20208;-64
2021/03/13 08:36:15;;;;;;;3.33;1.50;;;;;;;9.55;55.39;96662.59;8367018;28;20231;-63
2021/03/13 08:40:23;;;;;;;2.47;1.37;;;;;;;9.46;56.13;96647.63;8367513;28;20219;-63
2021/03/13 08:44:33;;;;;;;3.27;1.43;;;;;;;9.46;55.27;96643.31;8337896;28;20247;-63
2021/03/13 08:48:58;;;;;;;3.50;1.43;;;;;;;9.61;55.16;96627.78;8334457;28;20577;-63
2021/03/13 08:53:28;;;;;;;2.70;1.40;;;;;;;9.76;54.47;96619.06;8334525;28;20215;-63
2021/03/13 08:57:47;;;;;;;3.17;1.73;;;;;;;9.94;54.44;96604.19;8334604;28;20223;-64
2021/03/13 09:02:05;;;;;;;3.23;1.50;;;;;;;10.17;53.81;96603.53;8334177;28;20247;-63
2021/03/13 09:06:09;;;;;;;4.33;2.00;;;;;;;10.32;53.09;96601.75;8331547;28;20247;-64
2021/03/13 09:10:11;;;;;;;1.97;1.13;;;;;;;10.34;52.39;96586.94;8362904;28;20722;-64
2021/03/13 09:14:14;;;;;;;3.10;1.37;;;;;;;10.48;51.84;96569.69;8360947;28;20219;-63
2021/03/13 09:18:17;;;;;;;3.60;1.40;;;;;;;10.81;51.04;96573.53;8348686;28;20216;-63
2021/03/13 09:22:20;;;;;;;2.83;1.43;;;;;;;10.71;51.05;96563.78;8366258;28;20242;-63
2021/03/13 09:26:22;;;;;;;2.87;1.30;;;;;;;10.92;50.36;96540.78;8366252;28;20222;-64
2021/03/13 09:30:25;;;;;;;2.57;1.10;;;;;;;10.69;48.55;96544.13;8355464;28;20656;-66
2021/03/13 09:34:30;;;;;;;3.20;1.20;;;;;;;10.78;48.72;96537.50;8362339;28;20232;-63
2021/03/13 09:38:37;;;;;;;3.63;1.00;;;;;;;10.73;48.64;96535.19;8341588;28;20208;-63
2021/03/13 09:42:40;;;;;;;5.27;1.00;;;;;;;10.65;47.30;96534.91;8346951;28;20228;-63
2021/03/13 09:46:43;;;;;;;2.10;0.90;;;;;;;10.89;47.33;96524.63;8333297;28;20295;-63
2021/03/13 09:50:46;;;;;;;7.63;0.83;;;;;;;10.58;46.75;96534.47;8365014;28;20208;-63
2021/03/13 09:54:49;;;;;;;3.13;1.00;;;;;;;10.75;47.25;96510.84;8366019;28;20215;-62
2021/03/13 09:58:56;;;;;;;2.97;0.97;;;;;;;10.74;46.61;96498.03;8346698;28;20216;-63
2021/03/13 10:03:00;;;;;;;2.00;0.67;;;;;;;10.95;46.21;96503.50;8332147;28;20266;-63
2021/03/13 10:07:03;;;;;;;3.23;0.93;;;;;;;11.15;45.80;96507.28;8346478;28;20208;-63
2021/03/13 10:11:06;;;;;;;4.27;1.00;;;;;;;11.28;46.12;96495.13;8340597;28;20231;-63
2021/03/13 10:15:26;;;;;;;2.57;1.00;;;;;;;11.33;45.22;96484.44;8348714;28;20215;-63
2021/03/13 10:19:41;;;;;;;2.13;0.90;;;;;;;11.48;45.12;96474.72;8331531;28;20243;-63
2021/03/13 10:23:44;;;;;;;1.63;0.60;;;;;;;11.28;44.87;96468.38;8333191;28;20234;-63
2021/03/13 10:27:48;;;;;;;1.60;0.70;;;;;;;11.15;44.96;96476.19;8333191;28;20200;-63
2021/03/13 10:31:50;;;;;;;2.43;0.90;;;;;;;11.26;44.74;96462.50;8331093;28;20576;-63
2021/03/13 10:35:54;;;;;;;3.97;0.87;;;;;;;11.18;45.11;96463.03;8332622;28;20700;-63
2021/03/13 10:39:58;;;;;;;2.17;0.70;;;;;;;11.29;44.72;96451.88;8331727;28;20282;-63
2021/03/13 10:44:00;;;;;;;0.90;0.63;;;;;;;11.22;44.76;96451.50;8332072;28;20220;-63
2021/03/13 10:48:04;;;;;;;1.73;0.60;;;;;;;11.37;44.62;96441.00;8332510;28;20219;-63
2021/03/13 10:52:07;;;;;;;1.63;0.90;;;;;;;11.09;43.97;96441.19;8331884;28;20227;-63
2021/03/13 10:56:11;;;;;;;1.53;0.70;;;;;;;11.12;43.68;96432.38;8330042;28;20209;-63
2021/03/13 11:00:13;;;;;;;1.90;0.77;;;;;;;11.18;43.82;96437.13;8331519;28;20524;-63
2021/03/13 11:04:16;;;;;;;1.57;0.63;;;;;;;11.25;44.20;96424.53;8332028;28;20228;-63
2021/03/13 11:08:18;;;;;;;3.40;1.10;;;;;;;11.29;43.72;96426.81;8332576;28;20539;-63
2021/03/13 11:12:21;;;;;;;1.70;0.80;;;;;;;11.41;43.76;96425.09;8331360;28;20232;-63
2021/03/13 11:16:23;;;;;;;2.33;1.00;;;;;;;11.19;43.03;96410.25;8331548;28;20212;-63
2021/03/13 11:20:26;;;;;;;2.27;1.00;;;;;;;11.22;42.65;96422.19;8330253;28;20470;-63
2021/03/13 11:24:29;;;;;;;1.60;0.70;;;;;;;11.21;42.71;96420.53;8329953;28;20236;-63
2021/03/13 11:28:32;;;;;;;4.37;0.70;;;;;;;11.17;43.45;96419.09;8329891;28;20216;-63
2021/03/13 11:32:34;;;;;;;9.63;1.07;;;;;;;11.05;43.53;96423.38;8329362;28;20216;-63
2021/03/13 11:36:38;;;;;;;4.67;2.90;;;;;;;11.22;44.03;96404.06;8328990;28;20236;-62
2021/03/13 11:40:41;;;;;;;2.83;1.37;;;;;;;11.38;43.49;96396.81;8329300;28;20287;-63
2021/03/13 11:44:44;;;;;;;4.10;0.80;;;;;;;11.50;42.76;96384.75;8329859;28;20239;-63
2021/03/13 11:48:46;;;;;;;1.93;0.80;;;;;;;11.55;43.08;96377.44;8329838;28;20208;-63
2021/03/13 11:52:48;;;;;;;2.73;0.87;;;;;;;11.68;43.13;96377.34;8330827;28;20208;-64
2021/03/13 11:56:50;;;;;;;1.70;0.70;;;;;;;11.65;42.04;96372.38;8329327;28;20212;-64
2021/03/13 12:00:53;;;;;;;1.80;0.80;;;;;;;11.66;41.83;96371.47;8328546;28;20205;-64
2021/03/13 12:04:55;;;;;;;2.97;0.80;;;;;;;11.79;41.75;96363.59;8330347;28;20236;-64
2021/03/13 12:08:59;;;;;;;2.37;0.90;;;;;;;11.85;42.08;96360.53;8329169;28;20212;-64
2021/03/13 12:13:01;;;;;;;3.03;0.87;;;;;;;11.54;42.37;96370.59;8329931;28;20235;-64
2021/03/13 12:17:07;;;;;;;1.43;0.80;;;;;;;11.49;41.94;96355.38;8328937;28;20219;-63
2021/03/13 12:21:09;;;;;;;2.73;0.77;;;;;;;11.52;42.96;96368.13;8330446;28;20197;-64
2021/03/13 12:25:11;;;;;;;2.60;0.73;;;;;;;11.35;44.06;96391.84;8329356;28;20232;-64
2021/03/13 12:29:14;;;;;;;12.63;0.87;;;;;;;11.34;43.95;96362.50;8327261;28;20239;-63
2021/03/13 12:33:18;;;;;;;1.80;0.60;;;;;;;11.27;45.37;96363.06;8329405;28;20216;-64
2021/03/13 12:37:20;;;;;;;2.87;0.80;;;;;;;11.49;47.78;96367.53;8330435;28;20233;-64
2021/03/13 12:41:22;;;;;;;2.50;0.73;;;;;;;11.54;47.59;96378.38;8329227;28;20640;-63
2021/03/13 12:45:24;;;;;;;1.67;0.70;;;;;;;11.74;47.51;96387.28;8328591;28;20230;-64
2021/03/13 12:49:27;;;;;;;1.63;0.77;;;;;;;11.68;48.74;96370.41;8331678;28;20523;-64
2021/03/13 12:53:29;;;;;;;1.60;0.80;;;;;;;11.59;49.13;96372.84;8335402;28;20606;-64
2021/03/13 12:57:31;;;;;;;3.57;1.00;;;;;;;11.35;50.38;96371.13;8334018;28;20216;-64
2021/03/13 13:01:33;;;;;;;2.33;0.73;;;;;;;11.47;49.49;96362.44;8335093;28;20223;-64
2021/03/13 13:05:37;;;;;;;3.90;1.00;;;;;;;12.02;50.87;96365.31;8336104;28;20508;-63
2021/03/13 13:09:39;;;;;;;3.03;0.90;;;;;;;11.76;48.84;96346.50;8333635;28;20695;-63
2021/03/13 13:13:41;;;;;;;3.07;0.63;;;;;;;12.11;48.41;96366.41;8334769;28;20228;-63
2021/03/13 13:17:43;;;;;;;5.73;1.00;;;;;;;12.73;50.31;96346.06;8335059;28;20216;-63
2021/03/13 13:21:46;;;;;;;7.47;0.70;;;;;;;12.10;47.47;96349.97;8334719;28;20236;-63
2021/03/13 13:25:48;;;;;;;2.77;0.80;;;;;;;12.78;48.38;96347.34;8334263;28;20200;-63
2021/03/13 13:29:49;;;;;;;3.10;0.90;;;;;;;13.04;48.44;96340.09;8333336;28;20205;-63
2021/03/13 13:33:52;;;;;;;3.33;0.70;;;;;;;13.41;45.99;96355.34;8335486;28;20239;-63
2021/03/13 13:37:55;;;;;;;5.23;1.00;;;;;;;13.74;46.04;96356.13;8334381;28;20229;-63
2021/03/13 13:41:57;;;;;;;1.27;0.70;;;;;;;12.65;46.38;96407.22;8333472;28;20251;-63
2021/03/13 13:45:59;;;;;;;3.53;1.07;;;;;;;10.92;55.75;96494.16;8332826;28;20223;-63
2021/03/13 13:50:01;;;;;;;1.57;0.60;;;;;;;10.60;57.02;96526.59;8332425;28;20542;-63
2021/03/13 13:54:05;;;;;;;1.30;0.50;;;;;;;9.72;60.18;96527.94;8334075;28;20578;-64
2021/03/13 13:58:07;;;;;;;1.07;0.50;;;;;;;9.68;60.23;96505.00;8333788;28;20581;-63
2021/03/13 14:02:09;;;;;;;1.80;1.00;;;;;;;9.71;59.69;96515.97;8331891;28;20243;-64
2021/03/13 14:06:12;;;;;;;3.17;1.40;;;;;;;9.63;59.15;96530.28;8332836;28;20207;-64
2021/03/13 14:10:16;;;;;;;2.03;1.10;;;;;;;9.57;58.26;96526.34;8332427;28;20240;-64
2021/03/13 14:14:18;;;;;;;3.03;1.27;;;;;;;9.49;58.60;96526.00;8332792;28;20220;-63
2021/03/13 14:18:19;;;;;;;3.80;1.00;;;;;;;9.17;58.69;96531.41;8333430;28;20204;-63
2021/03/13 14:22:21;;;;;;;1.87;0.77;;;;;;;8.92;60.48;96534.66;8332532;28;20228;-63
2021/03/13 14:26:24;;;;;;;1.70;0.80;;;;;;;8.92;59.95;96519.19;8333438;28;20215;-64
2021/03/13 14:30:27;;;;;;;1.97;0.60;;;;;;;8.81;59.95;96519.81;8332710;28;20636;-64
2021/03/13 14:34:29;;;;;;;1.20;0.63;;;;;;;8.94;59.51;96509.59;8332218;28;20718;-64
2021/03/13 14:38:31;;;;;;;2.37;0.80;;;;;;;9.00;59.55;96509.19;8332193;28;20598;-64
2021/03/13 14:42:33;;;;;;;1.57;1.00;;;;;;;9.03;60.27;96506.44;8331009;28;20228;-64
2021/03/13 14:46:36;;;;;;;2.53;1.10;;;;;;;8.86;60.42;96504.06;8331765;28;20216;-64
2021/03/13 14:50:39;;;;;;;1.27;1.00;;;;;;;8.81;60.57;96509.50;8331161;28;20208;-64
2021/03/13 14:54:43;;;;;;;1.50;0.80;;;;;;;8.89;60.50;96515.03;8330732;28;20274;-64
2021/03/13 14:58:46;;;;;;;2.60;0.97;;;;;;;9.08;59.00;96525.06;8332764;28;20231;-64
2021/03/13 15:02:48;;;;;;;3.10;1.13;;;;;;;8.70;59.19;96510.16;8332184;28;20286;-64
2021/03/13 15:06:50;;;;;;;10.30;1.90;;;;;;;8.53;59.42;96528.38;8332755;28;20295;-64
2021/03/13 15:10:53;;;;;;;3.67;1.30;;;;;;;8.41;59.82;96520.47;8329012;28;20249;-63
2021/03/13 15:14:56;;;;;;;3.43;1.67;;;;;;;8.55;59.70;96527.38;8331325;28;20213;-63
2021/03/13 15:19:02;;;;;;;2.83;1.10;;;;;;;8.35;59.53;96510.44;8332740;28;20224;-64
2021/03/13 15:23:04;;;;;;;3.43;1.20;;;;;;;8.50;59.45;96497.59;8332273;28;20254;-64
2021/03/13 15:27:06;;;;;;;4.40;1.47;;;;;;;8.50;59.54;96518.25;8331334;28;20208;-64
2021/03/13 15:31:09;;;;;;;4.10;1.60;;;;;;;8.64;58.87;96505.34;8332034;28;20536;-64
2021/03/13 15:35:13;;;;;;;4.60;1.60;;;;;;;8.55;59.33;96517.06;8331046;28;20546;-64
2021/03/13 15:39:15;;;;;;;4.27;1.50;;;;;;;8.70;58.42;96509.31;8330678;28;20216;-64
2021/03/13 15:43:17;;;;;;;4.53;1.40;;;;;;;8.67;58.42;96510.31;8331311;28;20228;-63
2021/03/13 15:47:20;;;;;;;3.83;1.80;;;;;;;8.60;57.97;96527.09;8330496;28;20209;-64
2021/03/13 15:51:23;;;;;;;5.77;1.80;;;;;;;8.68;57.34;96511.16;8331036;28;20204;-63
2021/03/13 15:55:25;;;;;;;4.50;2.00;;;;;;;8.59;57.64;96507.38;8331907;28;20609;-64
2021/03/13 15:59:27;;;;;;;8.53;3.03;;;;;;;8.73;56.39;96502.22;8331884;28;20220;-63
2021/03/13 16:03:32;;;;;;;5.60;2.40;;;;;;;8.65;57.80;96503.59;8332422;28;20228;-62
2021/03/13 16:07:34;;;;;;;4.70;2.43;;;;;;;8.86;57.16;96517.78;8332249;28;20493;-62
2021/03/13 16:11:37;;;;;;;4.93;1.90;;;;;;;8.83;56.55;96507.66;8332160;28;20656;-62
2021/03/13 16:15:39;;;;;;;4.50;1.93;;;;;;;8.72;57.09;96499.72;8332703;28;20576;-62
2021/03/13 16:19:42;;;;;;;4.43;1.70;;;;;;;8.66;56.78;96490.59;8331985;28;20232;-63
2021/03/13 16:23:44;;;;;;;6.00;2.80;;;;;;;8.65;56.11;96477.81;8333236;28;20246;-61
2021/03/13 16:27:46;;;;;;;3.53;1.57;;;;;;;8.55;56.67;96477.53;8337190;28;20316;-62
2021/03/13 16:31:48;;;;;;;6.00;2.63;;;;;;;8.53;57.44;96492.25;8337047;28;20571;-62
2021/03/13 16:35:51;;;;;;;5.10;1.93;;;;;;;8.64;56.40;96484.69;8335622;28;20239;-61
2021/03/13 16:39:53;;;;;;;13.83;8.77;;;;;;;8.58;56.59;96483.31;8336863;28;20219;-62
2021/03/13 16:43:55;;;;;;;9.07;5.93;;;;;;;8.58;55.71;96495.38;8336562;28;20275;-62
2021/03/13 16:47:57;;;;;;;6.60;2.03;;;;;;;8.27;56.41;96504.91;8335625;28;20219;-62
2021/03/13 16:51:59;;;;;;;7.10;3.70;;;;;;;8.44;56.28;96505.72;8336157;28;20303;-62
2021/03/13 16:56:01;;;;;;;3.30;1.77;;;;;;;8.42;55.51;96495.47;8336711;28;20201;-63
2021/03/13 17:00:05;;;;;;;4.57;1.40;;;;;;;8.25;55.77;96499.00;8336694;28;20211;-63
2021/03/13 17:04:09;;;;;;;4.27;2.10;;;;;;;8.24;55.59;96497.34;8337770;28;20327;-62
2021/03/13 17:08:11;;;;;;;4.33;1.77;;;;;;;8.33;55.16;96509.72;8337517;28;20204;-62
2021/03/13 17:12:15;;;;;;;5.00;2.83;;;;;;;8.38;54.95;96515.44;8334619;28;20331;-63
2021/03/13 17:16:17;;;;;;;4.57;2.60;;;;;;;8.28;54.75;96503.16;8337027;28;20212;-62
2021/03/13 17:20:19;;;;;;;5.87;3.20;;;;;;;8.31;54.79;96511.53;8335650;28;20213;-62
2021/03/13 17:24:22;;;;;;;4.63;2.90;;;;;;;8.41;55.17;96514.41;8335761;28;20239;-63
2021/03/13 17:28:24;;;;;;;4.40;3.07;;;;;;;8.43;54.99;96504.88;8335481;28;20216;-62
2021/03/13 17:32:26;;;;;;;3.50;2.07;;;;;;;8.12;55.11;96503.22;8337146;28;20278;-62
2021/03/13 17:36:28;;;;;;;3.43;1.50;;;;;;;8.23;54.63;96508.59;8334869;28;20232;-62
2021/03/13 17:40:31;;;;;;;2.57;1.43;;;;;;;8.20;54.83;96508.75;8336997;28;20619;-63
2021/03/13 17:44:40;;;;;;;3.23;1.97;;;;;;;8.26;54.56;96525.63;8336528;28;20617;-62
2021/03/13 17:48:43;;;;;;;3.67;1.97;;;;;;;8.12;54.83;96521.28;8335078;28;20212;-62
2021/03/13 17:52:45;;;;;;;3.33;1.50;;;;;;;8.22;54.05;96517.22;8334897;28;20213;-62
2021/03/13 17:56:48;;;;;;;3.60;1.80;;;;;;;8.30;54.23;96520.22;8335154;28;20213;-62
2021/03/13 18:00:50;;;;;;;4.83;2.87;;;;;;;8.30;54.37;96529.69;8336212;28;20614;-62
2021/03/13 18:04:51;;;;;;;4.83;2.20;;;;;;;8.34;54.27;96515.69;8334755;28;20633;-63
2021/03/13 18:08:53;;;;;;;4.37;2.30;;;;;;;8.31;54.29;96534.75;8334425;28;20219;-63
2021/03/13 18:12:56;;;;;;;3.43;1.80;;;;;;;8.32;54.04;96535.59;8334508;28;20232;-62
2021/03/13 18:16:58;;;;;;;4.07;1.67;;;;;;;8.41;53.97;96537.63;8336154;28;20215;-62
2021/03/13 18:21:00;;;;;;;4.53;2.60;;;;;;;8.34;54.42;96536.31;8335895;28;20287;-62
2021/03/13 18:25:02;;;;;;;3.63;2.20;;;;;;;8.40;54.02;96536.81;8335585;28;20660;-63
2021/03/13 18:29:05;;;;;;;4.90;2.73;;;;;;;8.44;53.69;96544.41;8335190;28;20539;-64
2021/03/13 18:33:07;;;;;;;4.50;2.33;;;;;;;8.20;54.54;96525.06;8334973;28;20231;-63
2021/03/13 18:37:09;;;;;;;3.63;2.20;;;;;;;8.31;54.34;96544.25;8335632;28;20327;-63
2021/03/13 18:41:11;;;;;;;4.17;2.50;;;;;;;8.50;53.93;96539.72;8333392;28;20215;-63
2021/03/13 18:45:29;;;;;;;5.07;2.37;;;;;;;8.22;54.62;96545.59;8333864;28;20256;-64
2021/03/13 18:49:30;;;;;;;3.07;1.80;;;;;;;8.32;54.53;96558.78;8332966;28;20216;-63
2021/03/13 18:53:32;;;;;;;3.67;1.70;;;;;;;8.39;54.37;96557.53;8333966;28;20208;-64
2021/03/13 18:57:34;;;;;;;2.17;1.20;;;;;;;8.33;54.53;96557.91;8332117;28;20215;-62
2021/03/13 19:01:37;;;;;;;3.23;1.17;;;;;;;8.30;54.94;96564.06;8331795;28;20208;-62
2021/03/13 19:05:59;;;;;;;2.17;0.90;;;;;;;8.41;54.70;96561.72;8333419;28;20310;-62
2021/03/13 19:10:01;;;;;;;3.23;1.10;;;;;;;8.31;54.82;96563.13;8355285;28;20311;-63
2021/03/13 19:14:03;;;;;;;2.67;1.20;;;;;;;8.32;54.72;96562.22;8365679;28;20655;-62
2021/03/13 19:18:06;;;;;;;2.37;1.30;;;;;;;8.22;54.38;96556.78;8365881;28;20215;-63